createdAt,value
2023-02-07T00:00:11.314Z,1034.13
2023-02-07T00:00:49.306Z,1034.13
2023-02-07T00:01:14.247Z,1034.13
2023-02-07T00:01:46.854Z,1034.13
2023-02-07T00:02:15.290Z,1034.13
2023-02-07T00:02:45.845Z,1034.13
2023-02-07T00:03:17.407Z,1034.24
2023-02-07T00:03:48.475Z,1034.24
2023-02-07T00:04:18.978Z,1034.24
2023-02-07T00:04:50.560Z,1034.24
2023-02-07T00:05:20.742Z,1034.13
2023-02-07T00:05:53.503Z,1034.13
2023-02-07T00:06:23.858Z,1033.93
2023-02-07T00:06:54.825Z,1033.93
2023-02-07T00:07:24.755Z,1034.03
2023-02-07T00:07:56.532Z,1034.03
2023-02-07T00:08:26.698Z,1034.24
2023-02-07T00:08:58.697Z,1034.24
2023-02-07T00:09:28.718Z,1034.13
2023-02-07T00:10:01.267Z,1034.13
2023-02-07T00:10:31.139Z,1034.13
2023-02-07T00:11:02.459Z,1034.13
2023-02-07T00:11:33.776Z,1034.13
2023-02-07T00:12:05.718Z,1034.44
2023-02-07T00:12:35.269Z,1034.44
2023-02-07T00:13:06.940Z,1034.34
2023-02-07T00:13:36.782Z,1034.34
2023-02-07T00:14:08.418Z,1034.24
2023-02-07T00:14:38.901Z,1034.24
2023-02-07T00:15:11.066Z,1034.13
2023-02-07T00:15:41.960Z,1034.13
2023-02-07T00:16:12.853Z,1034.03
2023-02-07T00:16:44.068Z,1034.03
2023-02-07T00:17:15.046Z,1034.13
2023-02-07T00:17:45.149Z,1034.13
2023-02-07T00:18:16.410Z,1034.13
2023-02-07T00:18:47.105Z,1034.13
2023-02-07T00:19:19.291Z,1034.34
2023-02-07T00:19:48.839Z,1034.34
2023-02-07T00:20:20.447Z,1034.44
2023-02-07T00:20:51.454Z,1034.44
2023-02-07T00:21:23.064Z,1034.44
2023-02-07T00:21:54.114Z,1034.44
2023-02-07T00:22:25.134Z,1034.24
2023-02-07T00:22:55.141Z,1034.24
2023-02-07T00:23:27.128Z,1034.24
2023-02-07T00:23:56.971Z,1034.24
2023-02-07T00:24:28.556Z,1034.24
2023-02-07T00:24:59.001Z,1034.24
2023-02-07T00:25:31.449Z,1034.34
2023-02-07T00:26:01.187Z,1034.34
2023-02-07T00:26:32.843Z,1034.34
2023-02-07T00:27:03.890Z,1034.44
2023-02-07T00:27:34.876Z,1034.44
2023-02-07T00:28:05.082Z,1034.44
2023-02-07T00:28:36.809Z,1034.44
2023-02-07T00:29:06.892Z,1034.44
2023-02-07T00:29:39.028Z,1034.44
2023-02-07T00:30:11.598Z,1034.34
2023-02-07T00:30:40.650Z,1034.34
2023-02-07T00:31:11.161Z,1034.54
2023-02-07T00:31:42.762Z,1034.54
2023-02-07T00:32:13.718Z,1034.44
2023-02-07T00:32:45.680Z,1034.44
2023-02-07T00:33:15.060Z,1034.44
2023-02-07T00:33:46.809Z,1034.44
2023-02-07T00:34:17.045Z,1034.71
2023-02-07T00:34:48.646Z,1034.71
2023-02-07T00:35:19.244Z,1034.34
2023-02-07T00:35:51.027Z,1034.34
2023-02-07T00:36:20.781Z,1034.54
2023-02-07T00:36:52.856Z,1034.54
2023-02-07T00:37:23.859Z,1034.34
2023-02-07T00:37:54.749Z,1034.34
2023-02-07T00:38:25.050Z,1034.54
2023-02-07T00:38:56.463Z,1034.54
2023-02-07T00:39:26.772Z,1034.54
2023-02-07T00:39:58.554Z,1034.54
2023-02-07T00:40:38.152Z,1034.64
2023-02-07T00:41:00.657Z,1034.64
2023-02-07T00:41:30.727Z,1034.54
2023-02-07T00:42:02.526Z,1034.54
2023-02-07T00:42:33.733Z,1034.64
2023-02-07T00:43:18.786Z,1034.64
2023-02-07T00:43:35.912Z,1034.64
2023-02-07T00:44:05.762Z,1034.34
2023-02-07T00:44:37.443Z,1034.34
2023-02-07T00:45:09.379Z,1034.71
2023-02-07T00:45:39.905Z,1034.71
2023-02-07T00:46:09.898Z,1034.81
2023-02-07T00:46:41.594Z,1034.81
2023-02-07T00:47:11.722Z,1034.71
2023-02-07T00:47:44.437Z,1034.71
2023-02-07T00:48:13.779Z,1034.71
2023-02-07T00:48:46.105Z,1034.71
2023-02-07T00:49:15.949Z,1034.64
2023-02-07T00:49:47.484Z,1034.64
2023-02-07T00:50:19.616Z,1034.71
2023-02-07T00:50:49.576Z,1034.71
2023-02-07T00:51:19.959Z,1034.81
2023-02-07T00:51:51.454Z,1034.81
2023-02-07T00:52:21.996Z,1035.01
2023-02-07T00:52:54.746Z,1035.01
2023-02-07T00:53:24.058Z,1034.81
2023-02-07T00:53:55.692Z,1034.81
2023-02-07T00:54:25.798Z,1034.81
2023-02-07T00:54:57.431Z,1034.81
2023-02-07T00:55:28.166Z,1034.71
2023-02-07T00:55:59.486Z,1034.71
2023-02-07T00:56:29.813Z,1034.71
2023-02-07T00:57:01.966Z,1034.71
2023-02-07T00:57:31.743Z,1034.81
2023-02-07T00:58:04.439Z,1034.91
2023-02-07T00:58:33.763Z,1034.91
2023-02-07T00:59:05.597Z,1034.71
2023-02-07T00:59:35.757Z,1034.71
2023-02-07T01:00:08.459Z,1034.44
2023-02-07T01:00:45.300Z,1034.44
2023-02-07T01:01:09.475Z,1034.44
2023-02-07T01:01:39.729Z,1034.44
2023-02-07T01:02:11.403Z,1034.71
2023-02-07T01:02:41.782Z,1034.71
2023-02-07T01:03:13.838Z,1034.81
2023-02-07T01:03:45.007Z,1034.81
2023-02-07T01:04:14.734Z,1034.64
2023-02-07T01:04:46.507Z,1034.64
2023-02-07T01:05:17.109Z,1034.64
2023-02-07T01:05:48.527Z,1034.64
2023-02-07T01:06:18.734Z,1034.71
2023-02-07T01:06:50.457Z,1034.71
2023-02-07T01:07:21.247Z,1034.64
2023-02-07T01:07:52.466Z,1034.64
2023-02-07T01:08:24.156Z,1034.71
2023-02-07T01:08:54.812Z,1034.71
2023-02-07T01:09:24.939Z,1034.54
2023-02-07T01:09:56.582Z,1034.54
2023-02-07T01:10:27.811Z,1034.64
2023-02-07T01:10:58.868Z,1034.64
2023-02-07T01:11:28.777Z,1034.54
2023-02-07T01:12:01.150Z,1034.54
2023-02-07T01:12:30.901Z,1034.81
2023-02-07T01:13:02.958Z,1034.81
2023-02-07T01:13:34.213Z,1034.44
2023-02-07T01:14:06.154Z,1034.91
2023-02-07T01:14:34.805Z,1034.91
2023-02-07T01:15:07.211Z,1034.64
2023-02-07T01:15:40.279Z,1034.64
2023-02-07T01:16:08.166Z,1034.54
2023-02-07T01:16:38.870Z,1034.54
2023-02-07T01:17:11.164Z,1034.64
2023-02-07T01:17:41.165Z,1034.64
2023-02-07T01:18:12.904Z,1034.64
2023-02-07T01:18:43.944Z,1034.64
2023-02-07T01:19:20.929Z,1034.44
2023-02-07T01:19:45.382Z,1034.44
2023-02-07T01:20:16.608Z,1034.64
2023-02-07T01:20:47.204Z,1034.64
2023-02-07T01:21:18.078Z,1034.34
2023-02-07T01:21:49.524Z,1034.34
2023-02-07T01:22:20.097Z,1034.24
2023-02-07T01:22:51.749Z,1034.24
2023-02-07T01:23:22.122Z,1034.44
2023-02-07T01:23:54.896Z,1034.44
2023-02-07T01:24:24.064Z,1034.24
2023-02-07T01:24:54.835Z,1034.24
2023-02-07T01:25:27.446Z,1034.34
2023-02-07T01:25:56.736Z,1034.34
2023-02-07T01:26:28.924Z,1034.44
2023-02-07T01:26:58.757Z,1034.44
2023-02-07T01:27:31.063Z,1034.34
2023-02-07T01:28:01.117Z,1034.34
2023-02-07T01:28:33.101Z,1034.44
2023-02-07T01:29:04.147Z,1034.24
2023-02-07T01:29:35.134Z,1034.24
2023-02-07T01:30:06.086Z,1034.34
2023-02-07T01:30:37.055Z,1034.34
2023-02-07T01:31:07.002Z,1034.44
2023-02-07T01:31:39.660Z,1034.44
2023-02-07T01:32:09.026Z,1034.44
2023-02-07T01:32:41.109Z,1034.44
2023-02-07T01:33:10.933Z,1034.64
2023-02-07T01:33:42.822Z,1034.64
2023-02-07T01:34:13.857Z,1034.54
2023-02-07T01:34:44.768Z,1034.54
2023-02-07T01:35:15.380Z,1034.54
2023-02-07T01:35:46.795Z,1034.54
2023-02-07T01:36:16.943Z,1034.54
2023-02-07T01:36:48.494Z,1034.54
2023-02-07T01:37:19.440Z,1034.44
2023-02-07T01:37:50.949Z,1034.44
2023-02-07T01:38:21.049Z,1034.54
2023-02-07T01:38:52.953Z,1034.54
2023-02-07T01:39:23.980Z,1034.64
2023-02-07T01:39:55.556Z,1034.64
2023-02-07T01:40:26.428Z,1034.54
2023-02-07T01:40:57.003Z,1034.54
2023-02-07T01:41:27.022Z,1034.44
2023-02-07T01:41:58.916Z,1034.44
2023-02-07T01:42:29.139Z,1034.34
2023-02-07T01:43:01.119Z,1034.34
2023-02-07T01:43:31.066Z,1034.54
2023-02-07T01:44:03.977Z,1034.54
2023-02-07T01:44:34.635Z,1034.44
2023-02-07T01:45:07.705Z,1034.24
2023-02-07T01:45:35.416Z,1034.24
2023-02-07T01:46:06.170Z,1034.44
2023-02-07T01:46:37.423Z,1034.44
2023-02-07T01:47:07.746Z,1034.34
2023-02-07T01:47:39.705Z,1034.34
2023-02-07T01:48:10.453Z,1034.34
2023-02-07T01:48:42.005Z,1034.34
2023-02-07T01:49:11.717Z,1034.44
2023-02-07T01:49:44.752Z,1034.44
2023-02-07T01:50:14.441Z,1034.24
2023-02-07T01:50:46.090Z,1034.24
2023-02-07T01:51:15.857Z,1034.24
2023-02-07T01:51:48.141Z,1034.24
2023-02-07T01:52:17.897Z,1034.44
2023-02-07T01:52:49.818Z,1034.44
2023-02-07T01:53:20.230Z,1034.34
2023-02-07T01:53:52.409Z,1034.34
2023-02-07T01:54:21.698Z,1034.34
2023-02-07T01:54:55.009Z,1034.34
2023-02-07T01:55:24.704Z,1034.03
2023-02-07T01:55:54.911Z,1034.03
2023-02-07T01:56:31.639Z,1034.13
2023-02-07T01:56:56.997Z,1034.13
2023-02-07T01:57:29.172Z,1034.13
2023-02-07T01:57:58.974Z,1034.13
2023-02-07T01:58:30.531Z,1034.03
2023-02-07T01:59:00.740Z,1034.03
2023-02-07T01:59:32.408Z,1034.13
2023-02-07T02:00:05.764Z,1034.03
2023-02-07T02:00:35.191Z,1034.03
2023-02-07T02:01:05.042Z,1034.24
2023-02-07T02:01:37.009Z,1034.24
2023-02-07T02:02:06.696Z,1034.34
2023-02-07T02:02:37.954Z,1034.34
2023-02-07T02:03:09.316Z,1034.13
2023-02-07T02:03:40.720Z,1034.13
2023-02-07T02:04:10.784Z,1034.34
2023-02-07T02:04:42.629Z,1034.34
2023-02-07T02:05:14.190Z,1034.13
2023-02-07T02:05:44.882Z,1034.13
2023-02-07T02:06:14.730Z,1034.24
2023-02-07T02:06:46.704Z,1034.24
2023-02-07T02:07:17.028Z,1034.24
2023-02-07T02:07:48.720Z,1034.24
2023-02-07T02:08:19.230Z,1034.24
2023-02-07T02:08:50.424Z,1034.24
2023-02-07T02:09:20.691Z,1034.44
2023-02-07T02:09:53.324Z,1034.44
2023-02-07T02:10:24.161Z,1034.03
2023-02-07T02:10:55.087Z,1034.03
2023-02-07T02:11:24.715Z,1034.24
2023-02-07T02:11:56.729Z,1034.24
2023-02-07T02:12:26.843Z,1034.24
2023-02-07T02:12:58.642Z,1034.24
2023-02-07T02:13:28.707Z,1034.34
2023-02-07T02:14:00.641Z,1034.34
2023-02-07T02:14:30.852Z,1034.24
2023-02-07T02:15:03.788Z,1034.24
2023-02-07T02:15:33.788Z,1034.03
2023-02-07T02:16:06.825Z,1034.13
2023-02-07T02:16:35.478Z,1034.13
2023-02-07T02:17:06.474Z,1034.34
2023-02-07T02:17:36.724Z,1034.34
2023-02-07T02:18:08.401Z,1034.34
2023-02-07T02:18:38.802Z,1034.34
2023-02-07T02:19:10.557Z,1034.24
2023-02-07T02:19:40.768Z,1034.24
2023-02-07T02:20:13.549Z,1034.24
2023-02-07T02:20:46.269Z,1034.24
2023-02-07T02:21:14.428Z,1034.44
2023-02-07T02:21:45.287Z,1034.44
2023-02-07T02:22:16.442Z,1034.24
2023-02-07T02:22:46.689Z,1034.24
2023-02-07T02:23:18.427Z,1034.34
2023-02-07T02:23:48.759Z,1034.34
2023-02-07T02:24:21.132Z,1034.44
2023-02-07T02:24:51.003Z,1034.44
2023-02-07T02:25:22.857Z,1034.24
2023-02-07T02:25:53.922Z,1034.24
2023-02-07T02:26:24.722Z,1034.34
2023-02-07T02:26:54.737Z,1034.34
2023-02-07T02:27:26.424Z,1034.24
2023-02-07T02:27:56.688Z,1034.24
2023-02-07T02:28:28.437Z,1034.03
2023-02-07T02:28:58.705Z,1034.03
2023-02-07T02:29:30.395Z,1034.54
2023-02-07T02:30:01.051Z,1034.54
2023-02-07T02:30:33.224Z,1034.34
2023-02-07T02:31:04.367Z,1034.34
2023-02-07T02:31:34.457Z,1034.34
2023-02-07T02:32:04.706Z,1034.44
2023-02-07T02:32:36.608Z,1034.44
2023-02-07T02:33:06.721Z,1034.34
2023-02-07T02:33:38.608Z,1034.34
2023-02-07T02:34:08.977Z,1034.24
2023-02-07T02:34:40.650Z,1034.24
2023-02-07T02:35:11.892Z,1034.44
2023-02-07T02:35:42.425Z,1034.44
2023-02-07T02:36:13.728Z,1034.44
2023-02-07T02:36:44.696Z,1034.44
2023-02-07T02:37:14.848Z,1034.24
2023-02-07T02:37:47.033Z,1034.24
2023-02-07T02:38:16.900Z,1034.13
2023-02-07T02:38:48.809Z,1034.13
2023-02-07T02:39:18.901Z,1034.44
2023-02-07T02:39:50.856Z,1034.44
2023-02-07T02:40:21.369Z,1034.64
2023-02-07T02:40:52.774Z,1034.64
2023-02-07T02:41:23.708Z,1034.34
2023-02-07T02:41:54.848Z,1034.34
2023-02-07T02:42:24.933Z,1034.54
2023-02-07T02:42:56.577Z,1034.54
2023-02-07T02:43:26.878Z,1034.54
2023-02-07T02:43:58.605Z,1034.54
2023-02-07T02:44:28.898Z,1034.54
2023-02-07T02:45:01.190Z,1034.54
2023-02-07T02:45:31.572Z,1034.54
2023-02-07T02:46:02.920Z,1034.54
2023-02-07T02:46:33.957Z,1034.44
2023-02-07T02:47:06.422Z,1034.54
2023-02-07T02:47:35.019Z,1034.54
2023-02-07T02:48:06.723Z,1034.64
2023-02-07T02:48:37.161Z,1034.64
2023-02-07T02:49:08.821Z,1034.64
2023-02-07T02:49:39.249Z,1034.64
2023-02-07T02:50:11.127Z,1034.44
2023-02-07T02:50:41.068Z,1034.44
2023-02-07T02:51:13.117Z,1034.24
2023-02-07T02:51:43.994Z,1034.24
2023-02-07T02:52:15.086Z,1034.64
2023-02-07T02:52:50.536Z,1034.64
2023-02-07T02:53:17.043Z,1034.54
2023-02-07T02:53:47.107Z,1034.54
2023-02-07T02:54:18.545Z,1034.71
2023-02-07T02:54:48.854Z,1034.71
2023-02-07T02:55:21.485Z,1034.44
2023-02-07T02:55:50.876Z,1034.44
2023-02-07T02:56:23.614Z,1034.64
2023-02-07T02:56:53.993Z,1034.64
2023-02-07T02:57:25.415Z,1034.44
2023-02-07T02:57:55.768Z,1034.44
2023-02-07T02:58:26.848Z,1034.44
2023-02-07T02:58:56.793Z,1034.44
2023-02-07T02:59:28.409Z,1034.44
2023-02-07T02:59:58.931Z,1034.44
2023-02-07T03:00:34.209Z,1034.54
2023-02-07T03:01:04.014Z,1034.54
2023-02-07T03:01:33.315Z,1034.64
2023-02-07T03:02:03.925Z,1034.54
2023-02-07T03:02:33.925Z,1034.54
2023-02-07T03:03:04.782Z,1034.34
2023-02-07T03:03:36.809Z,1034.34
2023-02-07T03:04:06.896Z,1034.24
2023-02-07T03:04:39.818Z,1034.24
2023-02-07T03:05:09.967Z,1034.24
2023-02-07T03:05:41.050Z,1034.24
2023-02-07T03:06:11.217Z,1034.34
2023-02-07T03:06:42.834Z,1034.34
2023-02-07T03:07:14.205Z,1034.54
2023-02-07T03:07:48.222Z,1034.54
2023-02-07T03:08:14.804Z,1034.13
2023-02-07T03:08:46.890Z,1034.13
2023-02-07T03:09:16.815Z,1034.44
2023-02-07T03:09:48.899Z,1034.44
2023-02-07T03:10:19.566Z,1034.34
2023-02-07T03:10:50.897Z,1034.34
2023-02-07T03:11:22.146Z,1034.24
2023-02-07T03:11:52.914Z,1034.24
2023-02-07T03:12:23.846Z,1034.13
2023-02-07T03:12:54.634Z,1034.13
2023-02-07T03:13:24.698Z,1034.44
2023-02-07T03:13:56.387Z,1034.44
2023-02-07T03:14:26.899Z,1034.34
2023-02-07T03:14:58.676Z,1034.34
2023-02-07T03:15:30.097Z,1034.13
2023-02-07T03:16:01.155Z,1034.13
2023-02-07T03:16:31.013Z,1034.13
2023-02-07T03:17:02.421Z,1034.13
2023-02-07T03:17:34.005Z,1034.24
2023-02-07T03:18:06.089Z,1034.24
2023-02-07T03:18:35.328Z,1034.24
2023-02-07T03:19:06.703Z,1034.44
2023-02-07T03:19:36.796Z,1034.44
2023-02-07T03:20:08.989Z,1034.34
2023-02-07T03:20:38.965Z,1034.34
2023-02-07T03:21:11.514Z,1034.44
2023-02-07T03:21:41.190Z,1034.44
2023-02-07T03:22:12.832Z,1034.24
2023-02-07T03:22:43.810Z,1034.24
2023-02-07T03:23:14.422Z,1034.24
2023-02-07T03:23:44.921Z,1034.24
2023-02-07T03:24:17.258Z,1034.24
2023-02-07T03:24:46.891Z,1034.24
2023-02-07T03:25:19.256Z,1034.13
2023-02-07T03:25:48.907Z,1034.13
2023-02-07T03:26:20.833Z,1034.03
2023-02-07T03:26:50.894Z,1034.03
2023-02-07T03:27:22.758Z,1034.24
2023-02-07T03:27:53.976Z,1034.24
2023-02-07T03:28:25.186Z,1034.24
2023-02-07T03:28:55.918Z,1034.24
2023-02-07T03:29:26.390Z,1034.24
2023-02-07T03:29:57.112Z,1034.24
2023-02-07T03:30:30.069Z,1034.03
2023-02-07T03:30:59.087Z,1034.03
2023-02-07T03:31:31.574Z,1034.24
2023-02-07T03:32:01.188Z,1034.24
2023-02-07T03:32:32.614Z,1034.13
2023-02-07T03:33:03.892Z,1034.03
2023-02-07T03:33:35.748Z,1034.03
2023-02-07T03:34:05.038Z,1034.24
2023-02-07T03:34:36.869Z,1034.24
2023-02-07T03:35:07.728Z,1034.03
2023-02-07T03:35:39.453Z,1034.03
2023-02-07T03:36:09.241Z,1034.34
2023-02-07T03:36:40.792Z,1034.34
2023-02-07T03:37:11.108Z,1034.03
2023-02-07T03:37:42.921Z,1034.03
2023-02-07T03:38:14.283Z,1034.13
2023-02-07T03:38:45.093Z,1034.13
2023-02-07T03:39:15.092Z,1034.03
2023-02-07T03:39:46.697Z,1034.03
2023-02-07T03:40:18.216Z,1034.13
2023-02-07T03:40:48.726Z,1034.13
2023-02-07T03:41:19.054Z,1033.93
2023-02-07T03:41:50.448Z,1033.93
2023-02-07T03:42:21.452Z,1034.24
2023-02-07T03:42:52.417Z,1034.24
2023-02-07T03:43:23.883Z,1034.13
2023-02-07T03:43:54.844Z,1034.13
2023-02-07T03:44:24.874Z,1033.93
2023-02-07T03:44:56.927Z,1033.93
2023-02-07T03:45:27.673Z,1033.83
2023-02-07T03:45:58.626Z,1033.83
2023-02-07T03:46:28.989Z,1034.13
2023-02-07T03:47:00.497Z,1034.13
2023-02-07T03:47:30.875Z,1034.03
2023-02-07T03:48:02.466Z,1034.03
2023-02-07T03:48:33.753Z,1034.24
2023-02-07T03:49:05.656Z,1034.03
2023-02-07T03:49:34.708Z,1034.03
2023-02-07T03:50:06.954Z,1033.93
2023-02-07T03:50:36.695Z,1033.93
2023-02-07T03:51:08.421Z,1033.93
2023-02-07T03:51:38.677Z,1033.93
2023-02-07T03:52:10.542Z,1033.93
2023-02-07T03:52:40.703Z,1033.93
2023-02-07T03:53:12.411Z,1033.93
2023-02-07T03:53:43.771Z,1033.93
2023-02-07T03:54:14.448Z,1033.83
2023-02-07T03:54:44.668Z,1033.83
2023-02-07T03:55:16.799Z,1033.83
2023-02-07T03:55:47.229Z,1033.83
2023-02-07T03:56:18.377Z,1033.93
2023-02-07T03:56:48.769Z,1033.93
2023-02-07T03:57:20.637Z,1033.93
2023-02-07T03:57:50.709Z,1033.93
2023-02-07T03:58:23.023Z,1033.83
2023-02-07T03:58:53.720Z,1033.83
2023-02-07T03:59:25.009Z,1033.93
2023-02-07T03:59:54.702Z,1033.93
2023-02-07T04:00:27.448Z,1033.83
2023-02-07T04:00:56.806Z,1033.83
2023-02-07T04:01:29.564Z,1033.93
2023-02-07T04:01:58.786Z,1033.93
2023-02-07T04:02:30.575Z,1033.83
2023-02-07T04:03:01.034Z,1033.83
2023-02-07T04:03:31.954Z,1034.03
2023-02-07T04:04:04.420Z,1033.93
2023-02-07T04:04:33.722Z,1033.93
2023-02-07T04:05:06.801Z,1033.93
2023-02-07T04:05:35.796Z,1033.93
2023-02-07T04:06:07.813Z,1033.93
2023-02-07T04:06:38.087Z,1033.93
2023-02-07T04:07:09.613Z,1034.03
2023-02-07T04:07:39.769Z,1034.03
2023-02-07T04:08:11.554Z,1033.83
2023-02-07T04:08:41.938Z,1033.83
2023-02-07T04:09:14.468Z,1033.73
2023-02-07T04:09:44.030Z,1033.73
2023-02-07T04:10:15.856Z,1033.83
2023-02-07T04:10:45.890Z,1033.83
2023-02-07T04:11:17.403Z,1033.93
2023-02-07T04:11:47.697Z,1033.93
2023-02-07T04:12:19.508Z,1033.93
2023-02-07T04:12:49.811Z,1033.93
2023-02-07T04:13:21.474Z,1034.03
2023-02-07T04:13:52.451Z,1034.03
2023-02-07T04:14:25.333Z,1034.03
2023-02-07T04:14:53.695Z,1034.03
2023-02-07T04:15:26.292Z,1034.13
2023-02-07T04:15:56.345Z,1034.13
2023-02-07T04:16:27.721Z,1033.93
2023-02-07T04:16:57.808Z,1033.93
2023-02-07T04:17:31.371Z,1033.93
2023-02-07T04:18:00.060Z,1033.93
2023-02-07T04:18:32.480Z,1033.93
2023-02-07T04:19:02.012Z,1033.93
2023-02-07T04:19:35.396Z,1034.13
2023-02-07T04:20:06.066Z,1034.13
2023-02-07T04:20:37.892Z,1034.13
2023-02-07T04:21:06.968Z,1034.03
2023-02-07T04:21:36.873Z,1034.03
2023-02-07T04:22:09.224Z,1033.93
2023-02-07T04:22:39.421Z,1033.93
2023-02-07T04:23:10.459Z,1034.34
2023-02-07T04:23:41.808Z,1034.34
2023-02-07T04:24:13.039Z,1034.03
2023-02-07T04:24:43.686Z,1034.03
2023-02-07T04:25:15.455Z,1034.13
2023-02-07T04:25:44.822Z,1034.13
2023-02-07T04:26:16.670Z,1034.54
2023-02-07T04:26:46.754Z,1034.54
2023-02-07T04:27:18.791Z,1034.13
2023-02-07T04:27:48.781Z,1034.13
2023-02-07T04:28:22.123Z,1034.03
2023-02-07T04:28:50.701Z,1034.03
2023-02-07T04:29:22.561Z,1033.83
2023-02-07T04:29:55.043Z,1033.83
2023-02-07T04:30:25.315Z,1033.93
2023-02-07T04:30:54.845Z,1033.93
2023-02-07T04:31:26.757Z,1034.03
2023-02-07T04:31:58.840Z,1034.03
2023-02-07T04:32:28.826Z,1033.93
2023-02-07T04:32:58.682Z,1033.93
2023-02-07T04:33:31.802Z,1034.03
2023-02-07T04:34:00.809Z,1034.03
2023-02-07T04:34:32.944Z,1033.93
2023-02-07T04:35:04.197Z,1034.03
2023-02-07T04:35:35.591Z,1034.03
2023-02-07T04:36:05.110Z,1034.13
2023-02-07T04:36:36.617Z,1034.13
2023-02-07T04:37:06.782Z,1034.13
2023-02-07T04:37:38.958Z,1034.13
2023-02-07T04:38:08.940Z,1034.13
2023-02-07T04:38:41.699Z,1034.13
2023-02-07T04:39:11.038Z,1033.93
2023-02-07T04:39:42.389Z,1033.93
2023-02-07T04:40:14.724Z,1034.34
2023-02-07T04:40:47.717Z,1034.34
2023-02-07T04:41:14.904Z,1034.03
2023-02-07T04:41:46.896Z,1034.03
2023-02-07T04:42:16.896Z,1034.24
2023-02-07T04:42:49.077Z,1034.24
2023-02-07T04:43:18.910Z,1034.24
2023-02-07T04:43:51.140Z,1034.24
2023-02-07T04:44:20.919Z,1034.13
2023-02-07T04:44:52.999Z,1034.13
2023-02-07T04:45:25.045Z,1034.24
2023-02-07T04:45:55.036Z,1034.24
2023-02-07T04:46:25.034Z,1034.13
2023-02-07T04:46:56.699Z,1034.13
2023-02-07T04:47:26.788Z,1034.13
2023-02-07T04:47:59.261Z,1034.13
2023-02-07T04:48:28.782Z,1034.24
2023-02-07T04:49:00.509Z,1034.24
2023-02-07T04:49:34.021Z,1034.13
2023-02-07T04:50:03.175Z,1034.13
2023-02-07T04:50:34.541Z,1033.93
2023-02-07T04:51:07.126Z,1034.34
2023-02-07T04:51:34.925Z,1034.34
2023-02-07T04:52:05.927Z,1034.13
2023-02-07T04:52:37.890Z,1034.13
2023-02-07T04:53:07.914Z,1033.93
2023-02-07T04:53:39.877Z,1033.93
2023-02-07T04:54:09.991Z,1034.03
2023-02-07T04:54:41.660Z,1034.03
2023-02-07T04:55:12.410Z,1033.93
2023-02-07T04:55:44.757Z,1033.93
2023-02-07T04:56:14.440Z,1034.03
2023-02-07T04:56:45.910Z,1034.03
2023-02-07T04:57:15.806Z,1034.03
2023-02-07T04:57:47.876Z,1034.03
2023-02-07T04:58:18.071Z,1033.83
2023-02-07T04:58:50.821Z,1033.83
2023-02-07T04:59:19.983Z,1034.03
2023-02-07T04:59:52.477Z,1034.03
2023-02-07T05:00:24.565Z,1034.03
2023-02-07T05:00:54.929Z,1034.03
2023-02-07T05:01:24.456Z,1034.13
2023-02-07T05:01:55.890Z,1034.13
2023-02-07T05:02:26.025Z,1033.93
2023-02-07T05:03:00.411Z,1033.93
2023-02-07T05:03:27.974Z,1034.34
2023-02-07T05:03:59.796Z,1034.34
2023-02-07T05:04:30.200Z,1034.24
2023-02-07T05:05:02.084Z,1034.24
2023-02-07T05:05:33.178Z,1034.13
2023-02-07T05:06:04.882Z,1034.03
2023-02-07T05:06:33.812Z,1034.03
2023-02-07T05:07:06.007Z,1033.93
2023-02-07T05:07:35.704Z,1033.93
2023-02-07T05:08:07.704Z,1033.93
2023-02-07T05:08:38.119Z,1033.93
2023-02-07T05:09:09.885Z,1034.24
2023-02-07T05:09:40.239Z,1034.24
2023-02-07T05:10:11.784Z,1034.13
2023-02-07T05:10:41.740Z,1034.13
2023-02-07T05:11:14.756Z,1034.24
2023-02-07T05:11:44.085Z,1034.24
2023-02-07T05:12:16.720Z,1034.13
2023-02-07T05:12:45.750Z,1034.13
2023-02-07T05:13:18.100Z,1033.93
2023-02-07T05:13:47.692Z,1033.93
2023-02-07T05:14:19.417Z,1034.03
2023-02-07T05:14:49.686Z,1034.03
2023-02-07T05:15:23.256Z,1033.93
2023-02-07T05:15:51.729Z,1033.93
2023-02-07T05:16:24.814Z,1033.73
2023-02-07T05:16:53.741Z,1033.73
2023-02-07T05:17:25.368Z,1033.93
2023-02-07T05:17:55.686Z,1033.93
2023-02-07T05:18:27.397Z,1033.93
2023-02-07T05:18:57.686Z,1033.93
2023-02-07T05:19:30.391Z,1033.93
2023-02-07T05:19:59.730Z,1033.93
2023-02-07T05:20:37.663Z,1034.03
2023-02-07T05:21:01.729Z,1034.03
2023-02-07T05:21:34.409Z,1033.83
2023-02-07T05:22:04.990Z,1034.13
2023-02-07T05:22:35.610Z,1034.13
2023-02-07T05:23:06.330Z,1034.03
2023-02-07T05:23:37.382Z,1034.03
2023-02-07T05:24:07.723Z,1034.13
2023-02-07T05:24:39.535Z,1034.13
2023-02-07T05:25:10.577Z,1034.13
2023-02-07T05:25:41.508Z,1034.13
2023-02-07T05:26:11.697Z,1034.24
2023-02-07T05:26:44.432Z,1034.24
2023-02-07T05:27:13.693Z,1034.03
2023-02-07T05:27:45.554Z,1034.03
2023-02-07T05:28:15.775Z,1034.13
2023-02-07T05:28:47.398Z,1034.13
2023-02-07T05:29:17.694Z,1034.24
2023-02-07T05:29:49.761Z,1034.24
2023-02-07T05:30:20.812Z,1034.24
2023-02-07T05:30:51.717Z,1034.24
2023-02-07T05:31:21.795Z,1034.34
2023-02-07T05:31:54.409Z,1034.34
2023-02-07T05:32:24.022Z,1034.34
2023-02-07T05:32:55.431Z,1034.34
2023-02-07T05:33:25.705Z,1034.34
2023-02-07T05:33:57.368Z,1034.34
2023-02-07T05:34:27.715Z,1034.24
2023-02-07T05:34:59.388Z,1034.24
2023-02-07T05:35:30.090Z,1034.44
2023-02-07T05:36:01.475Z,1034.44
2023-02-07T05:36:32.292Z,1034.34
2023-02-07T05:37:04.527Z,1034.44
2023-02-07T05:37:33.721Z,1034.44
2023-02-07T05:38:06.490Z,1034.44
2023-02-07T05:38:35.700Z,1034.44
2023-02-07T05:39:07.383Z,1034.44
2023-02-07T05:39:37.699Z,1034.44
2023-02-07T05:40:10.043Z,1034.54
2023-02-07T05:40:41.127Z,1034.54
2023-02-07T05:41:11.386Z,1034.24
2023-02-07T05:41:41.722Z,1034.24
2023-02-07T05:42:14.369Z,1034.64
2023-02-07T05:42:44.073Z,1034.64
2023-02-07T05:43:15.885Z,1034.54
2023-02-07T05:43:45.710Z,1034.54
2023-02-07T05:44:17.448Z,1034.64
2023-02-07T05:44:47.686Z,1034.64
2023-02-07T05:45:20.228Z,1034.44
2023-02-07T05:45:49.733Z,1034.44
2023-02-07T05:46:21.532Z,1034.54
2023-02-07T05:46:52.693Z,1034.54
2023-02-07T05:47:24.321Z,1034.34
2023-02-07T05:47:53.705Z,1034.34
2023-02-07T05:48:25.448Z,1034.54
2023-02-07T05:48:55.663Z,1034.54
2023-02-07T05:49:27.430Z,1034.34
2023-02-07T05:49:58.364Z,1034.34
2023-02-07T05:50:29.817Z,1034.44
2023-02-07T05:50:59.709Z,1034.44
2023-02-07T05:51:31.385Z,1034.54
2023-02-07T05:52:02.004Z,1034.54
2023-02-07T05:52:35.764Z,1034.71
2023-02-07T05:53:05.245Z,1034.54
2023-02-07T05:53:36.394Z,1034.54
2023-02-07T05:54:05.828Z,1034.44
2023-02-07T05:54:37.410Z,1034.44
2023-02-07T05:55:08.127Z,1034.64
2023-02-07T05:55:40.320Z,1034.64
2023-02-07T05:56:09.904Z,1034.64
2023-02-07T05:56:42.266Z,1034.64
2023-02-07T05:57:11.877Z,1034.44
2023-02-07T05:57:44.679Z,1034.44
2023-02-07T05:58:14.184Z,1034.54
2023-02-07T05:58:46.973Z,1034.54
2023-02-07T05:59:15.745Z,1034.71
2023-02-07T05:59:46.853Z,1034.71
2023-02-07T06:00:19.912Z,1034.54
2023-02-07T06:00:49.135Z,1034.54
2023-02-07T06:01:20.418Z,1034.64
2023-02-07T06:01:50.633Z,1034.64
2023-02-07T06:02:22.407Z,1034.64
2023-02-07T06:02:53.711Z,1034.64
2023-02-07T06:03:24.748Z,1034.44
2023-02-07T06:03:54.922Z,1034.44
2023-02-07T06:04:26.475Z,1034.64
2023-02-07T06:04:56.767Z,1034.64
2023-02-07T06:05:30.118Z,1034.64
2023-02-07T06:05:58.686Z,1034.64
2023-02-07T06:06:30.368Z,1034.64
2023-02-07T06:07:00.772Z,1034.64
2023-02-07T06:07:33.038Z,1034.71
2023-02-07T06:08:03.957Z,1034.44
2023-02-07T06:08:35.280Z,1034.44
2023-02-07T06:09:04.652Z,1034.81
2023-02-07T06:09:36.430Z,1034.81
2023-02-07T06:10:07.520Z,1034.91
2023-02-07T06:10:38.353Z,1034.91
2023-02-07T06:11:08.704Z,1034.81
2023-02-07T06:11:41.146Z,1034.81
2023-02-07T06:12:10.945Z,1034.71
2023-02-07T06:12:43.331Z,1034.71
2023-02-07T06:13:13.958Z,1034.81
2023-02-07T06:13:45.313Z,1034.81
2023-02-07T06:14:14.840Z,1034.71
2023-02-07T06:14:47.018Z,1034.71